Nearby METAR Reports

 

KSJC - San Jose, California, USA
Distance from station: NE 14km
Actualización: 29/01/2023 08:53
Muy nuboso
Muy nuboso
 Viento del S
Viento: S 7 km/h
Temperatura: 9°C
Temp.Sensacion: 8°C
Rocío: 4°C
Humedad: 71%
Barómetro: 1014.2 hPa
Clouds: Muy nuboso
Visibilidad: 16 km
Cloud details: Muy nuboso 945 m
2023/01/29 07:53 KSJC 290753Z 18004KT 10SM BKN031 09/04 A2995 RMK AO2 SLP142 T00940044 401670067
KNUQ - Moffett Nas/Mtn, California, USA
Distance from station: N 14km
Actualización: 29/01/2023 09:30
Cubierto
Cubierto
 Viento del calm
Viento: Calma
Temperatura: 10°C
Rocío: 5°C
Humedad: 71%
Barómetro: 1013.9 hPa
Clouds: Cubierto
Visibilidad: 16 km
Cloud details: Cubierto 975 m
2023/01/29 08:30 KNUQ 290830Z AUTO 00000KT 10SM OVC032 10/05 A2994 RMK AO2
 
KPAO - Palo Alto, California, USA
Distance from station: NNO 23km
Actualización: 29/01/2023 05:47
NOT Current
Parcialmente nuboso
Parcialmente nuboso
 Viento del OSO
Viento: OSO 13 km/h
Temperatura: 8°C
Temp.Sensacion: 6°C
Rocío: 5°C
Humedad: 82%
Barómetro: 1015.2 hPa
Clouds: Parcialmente nuboso
Visibilidad: 16 km
Cloud details: Parcialmente nuboso 610 m
2023/01/29 04:47 KPAO 290447Z 25007KT 10SM SCT020 08/05 A2998 RMK LAST
KRHV - San Jose/Reid, California, USA
Distance from station: ENE 19km
Actualización: 29/01/2023 06:55
NOT Current
Few Clouds
Few Clouds
 Viento del N
Viento: N 11 km/h
Temperatura: 10°C
Temp.Sensacion: 8°C
Rocío: 5°C
Humedad: 71%
Barómetro: 1015.2 hPa
Clouds: Few Clouds
Visibilidad: 16 km
Cloud details: Few Clouds 914 m
2023/01/29 05:55 KRHV 290555Z 35006KT 10SM FEW030 10/05 A2998 RMK LAST
 
KOAK - Oakland, California, USA
Distance from station: NNO 50km
Actualización: 29/01/2023 08:53
Muy nuboso
Muy nuboso
 Viento del OSO
Viento: OSO 30 km/h
Temperatura: 10°C
Temp.Sensacion: 7°C
Rocío: 6°C
Humedad: 76%
Barómetro: 1013.2 hPa
Clouds: Muy nuboso
Visibilidad: 16 km
Cloud details: Muy nuboso 610 m
2023/01/29 07:53 KOAK 290753Z 25016KT 10SM BKN020 10/06 A2992 RMK AO2 PK WND 23026/0734 SLP132 T01000061 401280050
KSQL - San Carlos Airpo, California, USA
Distance from station: NO 34km
Actualización: 29/01/2023 09:35

 Viento del O
Viento: O 11 km/h
Temperatura: 10°C
Temp.Sensacion: 8°C
Rocío: 5°C
Humedad: 71%
Barómetro: 1013.9 hPa
Visibilidad: 16 km
2023/01/29 08:35 KSQL 290835Z AUTO 26006KT 10SM 10/05 A2994 RMK AO2
 
KSFO - San Francisco, California, USA
Distance from station: NO 49km
Actualización: 29/01/2023 08:56
Cubierto
Cubierto
 Viento del O
Viento: O 31 km/h, Racha: 44 km/h
Temperatura: 11°C
Rocío: 6°C
Humedad: 72%
Barómetro: 1013.5 hPa
Clouds: Cubierto
Visibilidad: 16 km
Cloud details: Muy nuboso 640 m
Cubierto 823 m
2023/01/29 07:56 KSFO 290756Z 28017G24KT 10SM BKN021 OVC027 11/06 A2993 RMK AO2 SLP134 T01110056 401390061 $
KE16 - San Martin, California, USA
Distance from station: ESE 43km
Actualización: 29/01/2023 09:35
Cubierto
Cubierto
 Viento del calm
Viento: Calma
Temperatura: 9°C
Rocío: 6°C
Humedad: 82%
Barómetro: 1014.6 hPa
Clouds: Cubierto
Visibilidad: 16 km
Cloud details: Muy nuboso 732 m
Cubierto 945 m
2023/01/29 08:35 KE16 290835Z AUTO 00000KT 10SM BKN024 OVC031 09/06 A2996 RMK AO2 PWINO PNO
 
KWVI - Watsonville, California, USA
Distance from station: SSE 44km
Actualización: 29/01/2023 09:23
Cubierto
Cubierto
 Viento del OSO
Viento: OSO 7 km/h
Temperatura: 7°C
Temp.Sensacion: 6°C
Rocío: 5°C
Humedad: 87%
Barómetro: 1014.6 hPa
Clouds: Cubierto
Visibilidad: 16 km
Cloud details: Cubierto 914 m
2023/01/29 08:23 KWVI 290823Z AUTO 25004KT 10SM OVC030 07/05 A2996 RMK AO2 T00670050
KHAF - Half Moon Bay, California, USA
Distance from station: ONO 50km
Actualización: 29/01/2023 09:35
Cubierto
Cubierto
 Viento del NO
Viento: NO 31 km/h, Racha: 44 km/h
Temperatura: 10°C
Temp.Sensacion: 7°C
Rocío: 6°C
Humedad: 76%
Barómetro: 1013.9 hPa
Clouds: Cubierto
Visibilidad: 13 km
Cloud details: Muy nuboso 732 m
Cubierto 884 m
2023/01/29 08:35 KHAF 290835Z AUTO 32017G24KT 8SM BKN024 OVC029 10/06 A2994 RMK AO2
 
KHWD - Hayward, California, USA
Distance from station: N 44km
Actualización: 29/01/2023 08:54
Cubierto
Cubierto
 Viento del OSO
Viento: OSO 15 km/h, Racha: 31 km/h
Temperatura: 11°C
Rocío: 6°C
Humedad: 72%
Barómetro: 1013.5 hPa
Clouds: Cubierto
Visibilidad: 16 km
Cloud details: Cubierto 762 m
2023/01/29 07:54 KHWD 290754Z AUTO 24008G17KT 10SM OVC025 11/06 A2993 RMK AO2 SLP145 T01060056 401390050 $
KLVK - Livermore, California, USA
Distance from station: NNE 51km
Actualización: 29/01/2023 08:53
Cubierto
Cubierto
 Viento del SSO
Viento: SSO 17 km/h
Temperatura: 9°C
Temp.Sensacion: 7°C
Rocío: 5°C
Humedad: 76%
Barómetro: 1013.2 hPa
Clouds: Cubierto
Visibilidad: 16 km
Cloud details: Cubierto 671 m
2023/01/29 07:53 KLVK 290753Z AUTO 20009KT 10SM OVC022 09/05 A2992 RMK AO2 SLP130 T00890050 401610011